Time;durP1;ratioP1;P1;durP2;ratioP2;P2;SDS_P1;SDS_P2;PMS_P1;PMS_P2;Temp;Humidity;BMP_temperature;BMP_pressure;BME280_temperature;BME280_humidity;BME280_pressure;Samples;Min_cycle;Max_cycle;Signal;HPM_P1;HPM_P2
2021/07/25 00:02:04;;;;;;;20.17;13.63;;;18.00;99.90;;;;;;5049831;28;20100;-65
2021/07/25 00:04:33;;;;;;;19.40;13.95;;;18.00;99.90;;;;;;5053042;28;20033;-65
2021/07/25 00:06:59;;;;;;;21.80;13.68;;;18.00;99.90;;;;;;5036462;28;20021;-65
2021/07/25 00:09:24;;;;;;;15.68;13.35;;;18.00;99.90;;;;;;5033891;28;20036;-65
2021/07/25 00:11:51;;;;;;;18.65;13.05;;;18.00;99.90;;;;;;5051584;28;20025;-66
2021/07/25 00:14:17;;;;;;;23.02;15.20;;;18.00;99.90;;;;;;5052161;28;20021;-65
2021/07/25 00:16:43;;;;;;;20.02;14.10;;;18.00;99.90;;;;;;5036211;28;20041;-69
2021/07/25 00:19:12;;;;;;;20.15;13.60;;;18.00;99.90;;;;;;5034165;28;20039;-65
2021/07/25 00:21:38;;;;;;;23.20;15.88;;;18.00;99.90;;;;;;5051895;28;20470;-65
2021/07/25 00:24:04;;;;;;;19.33;14.25;;;18.00;99.90;;;;;;5050993;28;20025;-65
2021/07/25 00:26:37;;;;;;;24.10;16.83;;;18.00;99.90;;;;;;5033270;28;20112;-65
2021/07/25 00:29:04;;;;;;;27.30;15.07;;;18.10;99.90;;;;;;5036235;28;20035;-66
2021/07/25 00:31:30;;;;;;;17.65;14.02;;;18.10;99.90;;;;;;5032721;28;20021;-66
2021/07/25 00:33:56;;;;;;;21.52;13.63;;;18.10;99.90;;;;;;5032963;28;20033;-66
2021/07/25 00:36:22;;;;;;;17.00;13.05;;;18.10;99.90;;;;;;5034546;28;20106;-66
2021/07/25 00:38:48;;;;;;;22.52;14.23;;;18.10;99.90;;;;;;5034694;28;20135;-66
2021/07/25 00:41:16;;;;;;;19.77;14.20;;;18.10;99.90;;;;;;5043002;28;20799;-66
2021/07/25 00:43:43;;;;;;;17.85;13.50;;;18.10;99.90;;;;;;5052618;28;20048;-66
2021/07/25 00:46:14;;;;;;;18.55;13.18;;;18.10;99.90;;;;;;5052168;28;20025;-66
2021/07/25 00:48:41;;;;;;;21.95;14.02;;;18.10;99.90;;;;;;5052608;28;20048;-65
2021/07/25 00:51:07;;;;;;;22.05;15.27;;;18.10;99.90;;;;;;5051619;28;20029;-66
2021/07/25 00:53:34;;;;;;;17.75;13.10;;;18.00;99.90;;;;;;5052250;28;20029;-66
2021/07/25 00:56:02;;;;;;;17.40;13.23;;;18.10;99.90;;;;;;5051272;28;20032;-65
2021/07/25 00:58:28;;;;;;;14.65;12.60;;;18.00;99.90;;;;;;5052098;28;20124;-65
2021/07/25 01:00:54;;;;;;;20.50;13.40;;;18.00;99.90;;;;;;5051461;28;20064;-65
2021/07/25 01:03:46;;;;;;;16.75;12.77;;;18.00;99.90;;;;;;5052259;28;20029;-65
2021/07/25 01:06:36;;;;;;;16.27;13.80;;;18.00;99.90;;;;;;5052030;28;20031;-66
2021/07/25 01:09:07;;;;;;;18.35;13.57;;;18.00;99.90;;;;;;5044858;28;20397;-66
2021/07/25 01:11:55;;;;;;;18.48;13.13;;;18.00;99.90;;;;;;5051878;28;20112;-66
2021/07/25 01:14:26;;;;;;;19.23;12.18;;;18.00;99.90;;;;;;5052142;28;20475;-65
2021/07/25 01:16:52;;;;;;;15.90;12.75;;;18.00;99.90;;;;;;5051313;28;20082;-66
2021/07/25 01:19:18;;;;;;;17.25;13.70;;;18.00;99.90;;;;;;5052069;28;20041;-65
2021/07/25 01:21:43;;;;;;;17.40;12.70;;;17.90;99.90;;;;;;5052012;28;20373;-65
2021/07/25 01:24:09;;;;;;;15.75;12.95;;;18.00;99.90;;;;;;5050796;28;20029;-66
2021/07/25 01:26:41;;;;;;;18.33;12.90;;;18.00;99.90;;;;;;5051622;28;20108;-66
2021/07/25 01:29:09;;;;;;;17.75;13.27;;;18.00;99.90;;;;;;5051216;28;20194;-66
2021/07/25 01:31:40;;;;;;;18.23;12.38;;;17.90;99.90;;;;;;5051807;28;20486;-66
2021/07/25 01:34:08;;;;;;;18.27;12.15;;;17.90;99.90;;;;;;5050891;28;20052;-66
2021/07/25 01:36:38;;;;;;;18.17;12.70;;;18.00;99.90;;;;;;5052054;28;20025;-66
2021/07/25 01:39:04;;;;;;;16.20;13.45;;;17.90;99.90;;;;;;5049834;28;20049;-66
2021/07/25 01:41:29;;;;;;;19.75;14.27;;;17.90;99.90;;;;;;5031710;28;20132;-64
2021/07/25 01:43:55;;;;;;;16.73;13.82;;;17.90;99.90;;;;;;5031038;28;20486;-64
2021/07/25 01:46:21;;;;;;;18.10;13.88;;;17.80;99.90;;;;;;5030605;28;20060;-64
2021/07/25 01:48:47;;;;;;;21.85;14.18;;;17.80;99.90;;;;;;5031482;28;20068;-67
2021/07/25 01:51:14;;;;;;;18.35;14.82;;;17.80;99.90;;;;;;5030098;28;20022;-64
2021/07/25 01:53:41;;;;;;;18.20;14.55;;;17.80;99.90;;;;;;5031788;28;20382;-64
2021/07/25 01:56:06;;;;;;;18.40;14.20;;;17.80;99.90;;;;;;5030796;28;20034;-64
2021/07/25 01:58:32;;;;;;;19.98;13.30;;;17.80;99.90;;;;;;5043681;28;20040;-64
2021/07/25 02:00:58;;;;;;;16.65;13.15;;;17.90;99.90;;;;;;5050315;28;20032;-64
2021/07/25 02:03:28;;;;;;;18.27;13.82;;;17.90;99.90;;;;;;5051310;28;20029;-64
2021/07/25 02:05:54;;;;;;;17.85;14.15;;;17.80;99.90;;;;;;5049853;28;20033;-65
2021/07/25 02:08:20;;;;;;;18.75;14.10;;;17.80;99.90;;;;;;5051026;28;20052;-65
2021/07/25 02:10:48;;;;;;;16.95;14.40;;;17.80;99.90;;;;;;5030340;28;20032;-64
2021/07/25 02:13:15;;;;;;;18.55;13.43;;;17.80;99.90;;;;;;5030988;28;20026;-64
2021/07/25 02:15:41;;;;;;;19.80;14.20;;;17.80;99.90;;;;;;5031521;28;20030;-64
2021/07/25 02:18:07;;;;;;;19.58;13.93;;;17.80;99.90;;;;;;5030847;28;20532;-64
2021/07/25 02:20:33;;;;;;;16.30;14.35;;;17.80;99.90;;;;;;5031438;28;20026;-64
2021/07/25 02:22:58;;;;;;;17.42;13.63;;;17.80;99.90;;;;;;5030623;28;20044;-65
2021/07/25 02:25:24;;;;;;;21.42;15.02;;;17.80;99.90;;;;;;5031533;28;20100;-65
2021/07/25 02:27:50;;;;;;;20.77;14.63;;;17.80;99.90;;;;;;5030910;28;20370;-68
2021/07/25 02:30:15;;;;;;;19.98;15.35;;;17.80;99.90;;;;;;5030763;28;20038;-64
2021/07/25 02:32:41;;;;;;;19.77;15.40;;;17.70;99.90;;;;;;5031615;28;20030;-64
2021/07/25 02:35:07;;;;;;;18.70;14.95;;;17.80;99.90;;;;;;5042040;28;20032;-64
2021/07/25 02:37:33;;;;;;;18.15;14.48;;;17.80;99.90;;;;;;5051036;28;20106;-64
2021/07/25 02:39:59;;;;;;;18.60;14.68;;;17.80;99.90;;;;;;5050091;28;20535;-65
2021/07/25 02:42:25;;;;;;;17.95;14.88;;;17.80;99.90;;;;;;5050785;28;20033;-64
2021/07/25 02:44:50;;;;;;;23.23;16.85;;;17.80;99.90;;;;;;5050625;28;20130;-68
2021/07/25 02:47:16;;;;;;;19.98;15.32;;;17.70;99.90;;;;;;5054280;28;20017;-64
2021/07/25 02:49:41;;;;;;;20.38;14.70;;;17.70;99.90;;;;;;5054487;28;20493;-65
2021/07/25 02:52:07;;;;;;;20.70;15.90;;;17.70;99.90;;;;;;5053503;28;20036;-64
2021/07/25 02:54:33;;;;;;;17.25;14.98;;;17.80;99.90;;;;;;5054601;28;20025;-64
2021/07/25 02:56:58;;;;;;;18.73;14.82;;;17.80;99.90;;;;;;5053928;28;20061;-64
2021/07/25 02:59:24;;;;;;;21.17;15.00;;;17.80;99.90;;;;;;5054431;28;20485;-64
2021/07/25 03:01:50;;;;;;;18.42;14.55;;;17.70;99.90;;;;;;5053925;28;20037;-68
2021/07/25 03:04:17;;;;;;;19.80;14.48;;;17.70;99.90;;;;;;5053772;28;20077;-64
2021/07/25 03:06:43;;;;;;;18.85;14.23;;;17.70;99.90;;;;;;5054193;28;20020;-67
2021/07/25 03:09:09;;;;;;;21.45;15.52;;;17.70;99.90;;;;;;5046288;28;20913;-64
2021/07/25 03:11:35;;;;;;;18.73;14.70;;;17.60;99.90;;;;;;5032534;28;20052;-66
2021/07/25 03:14:00;;;;;;;17.55;14.20;;;17.70;99.90;;;;;;5032347;28;20060;-65
2021/07/25 03:16:26;;;;;;;19.15;15.40;;;17.60;99.90;;;;;;5033826;28;20053;-64
2021/07/25 03:18:52;;;;;;;17.50;14.82;;;17.60;99.90;;;;;;5033570;28;20029;-68
2021/07/25 03:21:17;;;;;;;20.77;15.48;;;17.60;99.90;;;;;;5033912;28;20034;-65
2021/07/25 03:23:44;;;;;;;19.58;15.45;;;17.60;99.90;;;;;;5034202;28;20455;-65
2021/07/25 03:26:09;;;;;;;18.67;15.60;;;17.60;99.90;;;;;;5033486;28;20224;-65
2021/07/25 03:28:35;;;;;;;21.92;16.33;;;17.60;99.90;;;;;;5034109;28;20025;-64
2021/07/25 03:31:01;;;;;;;23.00;15.63;;;17.60;99.90;;;;;;5033081;28;20473;-65
2021/07/25 03:33:26;;;;;;;20.23;17.25;;;17.60;99.90;;;;;;5033801;28;20036;-64
2021/07/25 03:35:52;;;;;;;26.00;16.92;;;17.70;99.90;;;;;;5034403;28;20029;-68
2021/07/25 03:38:18;;;;;;;19.42;16.05;;;17.70;99.90;;;;;;5053459;28;20056;-64
2021/07/25 03:40:45;;;;;;;20.70;17.20;;;17.70;99.90;;;;;;5053638;28;20032;-64
2021/07/25 03:43:12;;;;;;;16.27;14.50;;;17.60;99.90;;;;;;5052774;28;20268;-64
2021/07/25 03:45:47;;;;;;;17.50;13.57;;;17.60;99.90;;;;;;5053717;28;20036;-64
2021/07/25 03:48:13;;;;;;;15.80;11.98;;;17.60;99.90;;;;;;5052859;28;20025;-64
2021/07/25 03:50:41;;;;;;;13.18;10.63;;;17.50;99.90;;;;;;5053327;28;20528;-64
2021/07/25 03:53:07;;;;;;;12.60;10.55;;;17.50;99.90;;;;;;5052534;28;20454;-64
2021/07/25 03:55:34;;;;;;;14.88;10.13;;;17.50;99.90;;;;;;5053470;28;20025;-65
2021/07/25 03:58:01;;;;;;;13.85;10.00;;;17.50;99.90;;;;;;5052358;28;20037;-64
2021/07/25 04:00:26;;;;;;;15.30;10.75;;;17.40;99.90;;;;;;5053060;28;20025;-64
2021/07/25 04:02:52;;;;;;;13.20;10.93;;;17.40;99.90;;;;;;5053080;28;20088;-68
2021/07/25 04:05:18;;;;;;;11.90;10.65;;;17.40;99.90;;;;;;5052477;28;20025;-64
2021/07/25 04:07:43;;;;;;;15.18;11.13;;;17.40;99.90;;;;;;5053436;28;20382;-64
2021/07/25 04:10:10;;;;;;;15.85;12.52;;;17.30;99.90;;;;;;5051860;28;20115;-64
2021/07/25 04:12:35;;;;;;;17.90;11.98;;;17.30;99.90;;;;;;5052745;28;20036;-65
2021/07/25 04:15:03;;;;;;;14.23;12.60;;;17.30;99.90;;;;;;5051688;28;20030;-64
2021/07/25 04:17:29;;;;;;;17.20;12.68;;;17.30;99.90;;;;;;5052843;28;20074;-64
2021/07/25 04:19:54;;;;;;;14.15;12.18;;;17.40;99.90;;;;;;5052347;28;20040;-67
2021/07/25 04:22:20;;;;;;;17.50;13.02;;;17.40;99.90;;;;;;5053052;28;20021;-64
2021/07/25 04:24:46;;;;;;;16.48;12.95;;;17.40;99.90;;;;;;5052941;28;20024;-64
2021/07/25 04:27:12;;;;;;;16.73;13.05;;;17.40;99.90;;;;;;5051891;28;20028;-64
2021/07/25 04:29:38;;;;;;;20.17;13.25;;;17.50;99.90;;;;;;5052686;28;20040;-65
2021/07/25 04:32:04;;;;;;;20.70;13.50;;;17.50;99.90;;;;;;5051081;28;20025;-64
2021/07/25 04:34:30;;;;;;;16.15;13.10;;;17.50;99.90;;;;;;5052790;28;20116;-64
2021/07/25 04:36:58;;;;;;;17.70;13.65;;;17.50;99.90;;;;;;5052057;28;20100;-68
2021/07/25 04:39:24;;;;;;;19.77;13.05;;;17.60;99.90;;;;;;5052521;28;20111;-64
2021/07/25 04:41:54;;;;;;;15.68;11.88;;;17.60;99.90;;;;;;5052414;28;20067;-64
2021/07/25 04:44:37;;;;;;;17.10;12.52;;;17.70;99.90;;;;;;5052027;28;20067;-64
2021/07/25 04:47:07;;;;;;;14.05;10.90;;;17.70;99.90;;;;;;5051760;28;20029;-64
2021/07/25 04:49:42;;;;;;;15.50;11.15;;;17.80;99.90;;;;;;5052700;28;20036;-64
2021/07/25 04:52:11;;;;;;;14.88;11.10;;;17.70;99.90;;;;;;5051792;28;20486;-64
2021/07/25 04:54:39;;;;;;;13.90;10.65;;;17.70;99.90;;;;;;5051287;28;20434;-66
2021/07/25 04:57:06;;;;;;;12.93;10.27;;;17.70;99.90;;;;;;5051615;28;20017;-64
2021/07/25 04:59:49;;;;;;;12.02;10.82;;;17.80;99.90;;;;;;5052202;28;20029;-64
2021/07/25 05:02:17;;;;;;;14.02;10.23;;;17.80;99.90;;;;;;5051454;28;20033;-64
2021/07/25 05:04:45;;;;;;;11.70;10.30;;;17.80;99.90;;;;;;5052179;28;20033;-64
2021/07/25 05:07:12;;;;;;;12.23;10.93;;;17.80;99.90;;;;;;5051195;28;20025;-64
2021/07/25 05:09:39;;;;;;;13.18;11.52;;;17.90;99.90;;;;;;5040061;28;20482;-64
2021/07/25 05:12:23;;;;;;;16.55;11.85;;;17.90;99.90;;;;;;5031719;28;20025;-64
2021/07/25 05:15:10;;;;;;;13.27;11.13;;;17.90;99.90;;;;;;5032059;28;20036;-64
2021/07/25 05:17:40;;;;;;;15.98;11.48;;;17.90;99.90;;;;;;5032171;28;20033;-64
2021/07/25 05:20:16;;;;;;;13.77;10.88;;;18.00;99.90;;;;;;5032116;28;20037;-64
2021/07/25 05:23:04;;;;;;;12.10;10.48;;;18.00;99.90;;;;;;5051948;28;20044;-64
2021/07/25 05:25:31;;;;;;;12.35;10.57;;;18.00;99.90;;;;;;5051797;28;20021;-64
2021/07/25 05:28:04;;;;;;;11.75;10.48;;;18.00;99.90;;;;;;5051180;28;20036;-68
2021/07/25 05:30:31;;;;;;;13.75;11.05;;;18.10;99.90;;;;;;5051781;28;20025;-65
2021/07/25 05:32:56;;;;;;;11.75;10.15;;;18.10;99.90;;;;;;5051033;28;20479;-68
2021/07/25 05:35:22;;;;;;;14.98;11.13;;;18.10;99.90;;;;;;5051312;28;20025;-65
2021/07/25 05:37:48;;;;;;;12.50;10.70;;;18.10;99.90;;;;;;5051093;28;20096;-64
2021/07/25 05:40:15;;;;;;;15.18;11.38;;;18.10;99.90;;;;;;5050969;28;20359;-64
2021/07/25 05:42:42;;;;;;;18.00;11.10;;;18.10;99.90;;;;;;5051045;28;20055;-64
2021/07/25 05:45:10;;;;;;;13.50;11.05;;;18.20;99.90;;;;;;5050801;28;20036;-64
2021/07/25 05:47:36;;;;;;;12.63;10.98;;;18.20;99.90;;;;;;5051363;28;20055;-64
2021/07/25 05:50:03;;;;;;;12.18;10.75;;;18.30;99.90;;;;;;5050633;28;20452;-64
2021/07/25 05:52:51;;;;;;;14.52;11.10;;;18.30;99.90;;;;;;5051522;28;20025;-64
2021/07/25 05:55:21;;;;;;;13.77;10.98;;;18.30;99.90;;;;;;5050867;28;20016;-64
2021/07/25 05:57:47;;;;;;;;;;;18.40;99.90;;;;;;5051805;28;20063;-64
2021/07/25 06:00:13;;;;;;;10.15;9.10;;;18.40;99.90;;;;;;5050386;28;19908;-64
2021/07/25 06:03:02;;;;;;;17.33;10.55;;;18.40;99.90;;;;;;5051527;28;20359;-64
2021/07/25 06:05:36;;;;;;;10.95;9.75;;;18.50;99.90;;;;;;5051019;28;20486;-64
2021/07/25 06:08:04;;;;;;;13.10;8.73;;;18.50;99.90;;;;;;5050611;28;20041;-64
2021/07/25 06:10:31;;;;;;;11.35;9.95;;;18.50;99.90;;;;;;5032870;28;20083;-64
2021/07/25 06:13:04;;;;;;;10.20;8.85;;;18.60;99.90;;;;;;5030713;28;20029;-67
2021/07/25 06:15:32;;;;;;;9.70;8.15;;;18.70;99.90;;;;;;5031217;28;20057;-64
2021/07/25 06:18:01;;;;;;;10.65;7.97;;;18.90;99.90;;;;;;5030206;28;20029;-65
2021/07/25 06:20:28;;;;;;;10.82;8.32;;;19.00;99.90;;;;;;5032166;28;20029;-64
2021/07/25 06:22:55;;;;;;;10.00;8.38;;;19.10;99.90;;;;;;5035901;28;20168;-64
2021/07/25 06:25:28;;;;;;;9.80;7.68;;;19.20;99.90;;;;;;5054465;28;20029;-63
2021/07/25 06:27:57;;;;;;;8.27;7.47;;;19.20;99.90;;;;;;5054808;28;20029;-68
2021/07/25 06:30:24;;;;;;;9.15;7.35;;;19.20;99.90;;;;;;5053992;28;20127;-64
2021/07/25 06:33:07;;;;;;;9.55;7.63;;;19.20;99.90;;;;;;5054536;28;20025;-82
2021/07/25 06:35:35;;;;;;;8.20;7.15;;;19.30;99.90;;;;;;5045189;28;20032;-73
2021/07/25 06:38:09;;;;;;;11.38;8.00;;;19.40;99.90;;;;;;5034050;28;20057;-73
2021/07/25 06:40:36;;;;;;;9.27;7.47;;;19.40;99.90;;;;;;5034869;28;20041;-73
2021/07/25 06:43:03;;;;;;;9.20;7.25;;;19.50;99.90;;;;;;5034041;28;20037;-72
2021/07/25 06:45:30;;;;;;;12.70;7.10;;;19.60;99.90;;;;;;5034069;28;20033;-73
2021/07/25 06:47:56;;;;;;;10.93;7.38;;;19.80;99.90;;;;;;5034553;28;20036;-72
2021/07/25 06:50:24;;;;;;;8.55;7.70;;;20.10;99.90;;;;;;5034706;28;20391;-74
2021/07/25 06:52:51;;;;;;;10.35;7.18;;;20.40;99.90;;;;;;5034721;28;20025;-74
2021/07/25 06:55:19;;;;;;;11.93;7.30;;;20.80;99.90;;;;;;5032293;28;20116;-76
2021/07/25 06:57:45;;;;;;;11.27;7.75;;;21.10;99.90;;;;;;5034344;28;20029;-73
2021/07/25 07:00:11;;;;;;;11.38;7.65;;;21.50;99.90;;;;;;5033812;28;20033;-73
2021/07/25 07:02:47;;;;;;;8.77;7.25;;;21.60;99.90;;;;;;5034307;28;20080;-75
2021/07/25 07:05:14;;;;;;;8.32;6.95;;;21.80;99.90;;;;;;5032926;28;20025;-74
2021/07/25 07:07:39;;;;;;;15.60;6.95;;;21.90;99.90;;;;;;5028179;28;20091;-75
2021/07/25 07:10:05;;;;;;;11.05;7.07;;;22.00;99.90;;;;;;5035794;28;20029;-75
2021/07/25 07:12:31;;;;;;;9.73;6.97;;;22.20;99.90;;;;;;5032631;28;20382;-74
2021/07/25 07:14:57;;;;;;;11.95;7.30;;;22.30;99.90;;;;;;5032332;28;20033;-73
2021/07/25 07:17:22;;;;;;;13.38;7.70;;;22.40;99.90;;;;;;5033126;28;20026;-76
2021/07/25 07:19:48;;;;;;;9.40;6.97;;;22.40;99.90;;;;;;5033756;28;20539;-75
2021/07/25 07:22:32;;;;;;;15.23;6.10;;;22.40;99.90;;;;;;5035615;28;20037;-74
2021/07/25 07:24:57;;;;;;;9.85;7.30;;;22.20;99.90;;;;;;5036356;28;20021;-72
2021/07/25 07:27:24;;;;;;;7.68;6.82;;;22.20;99.90;;;;;;5034225;28;20033;-75
2021/07/25 07:29:51;;;;;;;11.55;7.63;;;22.20;99.90;;;;;;5034060;28;20074;-75
2021/07/25 07:32:17;;;;;;;10.60;7.25;;;22.20;99.90;;;;;;5032978;28;20346;-76
2021/07/25 07:34:43;;;;;;;10.50;7.53;;;22.20;99.90;;;;;;5033936;28;20029;-74
2021/07/25 07:37:09;;;;;;;10.70;7.57;;;22.20;99.90;;;;;;5037376;28;20160;-73
2021/07/25 07:39:39;;;;;;;10.18;6.43;;;22.20;99.90;;;;;;5014204;28;20451;-74
2021/07/25 07:42:06;;;;;;;9.93;6.53;;;22.20;99.90;;;;;;5013720;28;20502;-74
2021/07/25 07:44:33;;;;;;;8.07;6.50;;;22.20;99.90;;;;;;5014233;28;20025;-75
2021/07/25 07:46:59;;;;;;;9.18;6.07;;;22.20;99.90;;;;;;5013374;28;20045;-73
2021/07/25 07:49:26;;;;;;;8.90;6.22;;;22.20;99.90;;;;;;5014119;28;20044;-73
2021/07/25 07:51:52;;;;;;;12.75;6.55;;;22.10;99.90;;;;;;5014368;28;20030;-73
2021/07/25 07:54:18;;;;;;;8.75;5.60;;;22.10;99.90;;;;;;5013084;28;20598;-74
2021/07/25 07:56:43;;;;;;;8.27;5.85;;;22.10;99.90;;;;;;5013967;28;20026;-73
2021/07/25 07:59:09;;;;;;;7.78;5.80;;;22.10;99.90;;;;;;5013419;28;20113;-74
2021/07/25 08:01:34;;;;;;;6.70;5.40;;;22.30;99.90;;;;;;5014126;28;20032;-73
2021/07/25 08:04:00;;;;;;;9.88;6.40;;;22.20;99.90;;;;;;5022441;28;20025;-70
2021/07/25 08:06:26;;;;;;;8.45;6.55;;;22.30;99.90;;;;;;5043059;28;20071;-78
2021/07/25 08:08:51;;;;;;;7.72;6.50;;;22.20;99.90;;;;;;5018413;28;20041;-75
2021/07/25 08:11:17;;;;;;;9.15;6.03;;;22.10;99.90;;;;;;5032522;28;20091;-74
2021/07/25 08:13:43;;;;;;;8.88;6.40;;;22.10;99.90;;;;;;5032856;28;20344;-73
2021/07/25 08:16:09;;;;;;;7.60;6.45;;;22.10;99.90;;;;;;5032168;28;20090;-73
2021/07/25 08:18:35;;;;;;;6.03;5.40;;;22.20;99.90;;;;;;5033097;28;20083;-75
2021/07/25 08:21:01;;;;;;;8.35;5.93;;;22.30;99.90;;;;;;5032973;28;20041;-71
2021/07/25 08:23:27;;;;;;;7.88;6.35;;;22.30;99.90;;;;;;5033109;28;20048;-75
2021/07/25 08:25:52;;;;;;;9.30;6.75;;;22.40;99.90;;;;;;5033376;28;20033;-74
2021/07/25 08:28:18;;;;;;;8.55;6.43;;;22.50;99.90;;;;;;5032641;28;20037;-75
2021/07/25 08:30:44;;;;;;;7.82;5.65;;;22.40;99.90;;;;;;5032735;28;20467;-74
2021/07/25 08:33:10;;;;;;;10.75;6.38;;;22.40;99.90;;;;;;5032365;28;20072;-74
2021/07/25 08:35:35;;;;;;;7.95;5.90;;;22.30;99.90;;;;;;5037651;28;20064;-72
2021/07/25 08:38:01;;;;;;;9.07;6.20;;;22.30;99.90;;;;;;5034783;28;20158;-73
2021/07/25 08:40:29;;;;;;;9.40;6.55;;;22.30;99.90;;;;;;5032832;28;20360;-74
2021/07/25 08:43:08;;;;;;;7.30;6.20;;;22.30;99.90;;;;;;5032171;28;20478;-72
2021/07/25 08:45:36;;;;;;;8.02;5.93;;;22.30;99.90;;;;;;5032869;28;20022;-71
2021/07/25 08:48:13;;;;;;;9.55;7.20;;;22.40;99.90;;;;;;5031800;28;20055;-74
2021/07/25 08:50:55;;;;;;;9.63;6.60;;;22.40;99.90;;;;;;5032791;28;20034;-72
2021/07/25 08:53:24;;;;;;;6.70;5.88;;;22.30;99.90;;;;;;5031910;28;20079;-82
2021/07/25 08:55:49;;;;;;;8.07;5.65;;;22.30;99.90;;;;;;5032575;28;20422;-78
2021/07/25 08:58:18;;;;;;;7.40;6.55;;;22.30;99.90;;;;;;5031838;28;20033;-77
2021/07/25 09:00:48;;;;;;;9.30;6.03;;;22.30;99.90;;;;;;5030995;28;20095;-78
2021/07/25 09:03:15;;;;;;;6.70;5.90;;;22.40;99.90;;;;;;5031652;28;20022;-76
2021/07/25 09:05:43;;;;;;;8.13;6.13;;;22.40;99.90;;;;;;5038779;28;20079;-79
2021/07/25 09:08:09;;;;;;;9.85;5.80;;;22.50;99.90;;;;;;5026712;28;20041;-72
2021/07/25 09:10:35;;;;;;;7.63;5.38;;;22.50;99.90;;;;;;5031878;28;20029;-75
2021/07/25 09:13:01;;;;;;;7.45;6.00;;;22.50;99.90;;;;;;5032073;28;20056;-74
2021/07/25 09:15:30;;;;;;;9.13;6.68;;;22.40;99.90;;;;;;5032196;28;20032;-73
2021/07/25 09:17:57;;;;;;;7.75;5.63;;;22.40;99.90;;;;;;5032007;28;20041;-73
2021/07/25 09:20:28;;;;;;;7.57;5.97;;;22.40;99.90;;;;;;5031468;28;20037;-71
2021/07/25 09:22:57;;;;;;;7.93;6.70;;;22.40;99.90;;;;;;5030714;28;20120;-73
2021/07/25 09:25:29;;;;;;;8.45;5.75;;;22.50;99.90;;;;;;5031492;28;20025;-74
2021/07/25 09:27:57;;;;;;;7.80;5.10;;;22.50;99.90;;;;;;5032333;28;20112;-72
2021/07/25 09:30:25;;;;;;;9.23;6.35;;;22.60;99.90;;;;;;5031424;28;20025;-77
2021/07/25 09:32:52;;;;;;;8.73;6.32;;;22.80;99.90;;;;;;5031822;28;20033;-72
2021/07/25 09:35:27;;;;;;;9.02;5.53;;;22.90;99.90;;;;;;5034099;28;20021;-74
2021/07/25 09:38:08;;;;;;;10.68;6.18;;;22.90;99.90;;;;;;5026149;28;20054;-73
2021/07/25 09:40:37;;;;;;;5.80;5.18;;;22.90;99.90;;;;;;5012329;28;20021;-73
2021/07/25 09:43:09;;;;;;;8.75;5.90;;;22.80;99.90;;;;;;5012189;28;20068;-73
2021/07/25 09:45:58;;;;;;;6.70;5.70;;;22.70;99.90;;;;;;5012084;28;20025;-75
2021/07/25 09:48:29;;;;;;;7.73;6.00;;;22.60;99.90;;;;;;5019495;28;20041;-63
2021/07/25 09:51:03;;;;;;;13.43;7.55;;;22.40;99.90;;;;;;5031671;28;20033;-63
2021/07/25 09:54:03;;;;;;;9.10;6.57;;;22.20;99.90;;;;;;5031446;28;20032;-63
2021/07/25 09:56:29;;;;;;;9.50;6.72;;;21.80;99.90;;;;;;5034033;28;20045;-63
2021/07/25 09:58:57;;;;;;;9.07;6.72;;;21.50;99.90;;;;;;5035800;28;20037;-63
2021/07/25 10:01:38;;;;;;;8.02;7.22;;;21.20;99.90;;;;;;5034604;28;20383;-63
2021/07/25 10:04:15;;;;;;;9.88;6.85;;;21.00;99.90;;;;;;5036114;28;20097;-63
2021/07/25 10:06:43;;;;;;;10.68;7.15;;;21.00;99.90;;;;;;5044538;28;20147;-63
2021/07/25 10:09:14;;;;;;;10.38;7.13;;;20.90;99.90;;;;;;5022691;28;20090;-64
2021/07/25 10:11:48;;;;;;;12.27;7.10;;;20.90;99.90;;;;;;5035458;28;20029;-65
2021/07/25 10:14:19;;;;;;;9.43;7.32;;;20.80;99.90;;;;;;5034967;28;20021;-66
2021/07/25 10:16:52;;;;;;;8.93;7.20;;;20.80;99.90;;;;;;5035402;28;20041;-66
2021/07/25 10:19:23;;;;;;;8.98;6.82;;;20.70;99.90;;;;;;5034540;28;20029;-65
2021/07/25 10:21:50;;;;;;;12.70;6.57;;;20.70;99.90;;;;;;5035109;28;20036;-66
2021/07/25 10:24:18;;;;;;;8.52;6.47;;;20.60;99.90;;;;;;5035068;28;20096;-66
2021/07/25 10:26:43;;;;;;;8.80;5.90;;;20.60;99.90;;;;;;5035657;28;20075;-65
2021/07/25 10:29:11;;;;;;;6.72;6.00;;;20.40;99.90;;;;;;5034720;28;20055;-66
2021/07/25 10:31:38;;;;;;;6.38;4.80;;;20.30;99.90;;;;;;5035563;28;20059;-66
2021/07/25 10:34:05;;;;;;;7.60;4.40;;;20.10;99.90;;;;;;5035622;28;20022;-66
2021/07/25 10:36:33;;;;;;;6.45;5.22;;;19.90;99.90;;;;;;5046232;28;20033;-66
2021/07/25 10:38:59;;;;;;;5.35;4.85;;;19.70;99.90;;;;;;5054640;28;20140;-66
2021/07/25 10:41:26;;;;;;;7.10;5.72;;;19.60;99.90;;;;;;5054143;28;20115;-66
2021/07/25 10:43:52;;;;;;;6.88;6.18;;;19.50;99.90;;;;;;5055121;28;20029;-63
2021/07/25 10:46:20;;;;;;;9.50;6.43;;;19.50;99.90;;;;;;5053229;28;20436;-64
2021/07/25 10:49:03;;;;;;;7.32;6.20;;;19.40;99.90;;;;;;5054756;28;20040;-65
2021/07/25 10:51:32;;;;;;;10.52;6.50;;;19.40;99.90;;;;;;5033219;28;20132;-66
2021/07/25 10:54:24;;;;;;;14.27;8.52;;;19.40;99.90;;;;;;5034810;28;20045;-65
2021/07/25 10:57:00;;;;;;;10.75;7.35;;;19.40;99.90;;;;;;5033671;28;20525;-65
2021/07/25 10:59:50;;;;;;;9.43;6.30;;;19.40;99.90;;;;;;5033738;28;20044;-66
2021/07/25 11:02:22;;;;;;;8.60;6.82;;;19.40;99.90;;;;;;5033808;28;20026;-66
2021/07/25 11:04:53;;;;;;;7.47;6.38;;;19.40;99.90;;;;;;5034114;28;20387;-66
2021/07/25 11:07:24;;;;;;;8.85;6.72;;;19.50;99.90;;;;;;5031771;28;20176;-66
2021/07/25 11:09:56;;;;;;;8.55;6.20;;;19.50;99.90;;;;;;5034572;28;20533;-66
2021/07/25 11:12:22;;;;;;;8.82;6.25;;;19.50;99.90;;;;;;5033660;28;20083;-66
2021/07/25 11:14:59;;;;;;;9.10;5.88;;;19.50;99.90;;;;;;5034220;28;20372;-65
2021/07/25 11:17:48;;;;;;;8.63;5.97;;;19.60;99.90;;;;;;5033235;28;20030;-66
2021/07/25 11:20:37;;;;;;;6.68;5.15;;;19.70;99.90;;;;;;5035713;28;20056;-66
2021/07/25 11:23:10;;;;;;;6.50;5.30;;;19.80;99.90;;;;;;5033812;28;20026;-66
2021/07/25 11:25:37;;;;;;;7.78;5.47;;;19.90;99.90;;;;;;5033543;28;20025;-66
2021/07/25 11:28:09;;;;;;;9.45;5.60;;;20.00;99.90;;;;;;5034186;28;20030;-66
2021/07/25 11:30:53;;;;;;;5.15;4.65;;;20.10;99.90;;;;;;5033185;28;20033;-66
2021/07/25 11:33:50;;;;;;;8.68;5.10;;;20.30;99.90;;;;;;5032870;28;20099;-66
2021/07/25 11:36:22;;;;;;;7.57;5.30;;;20.40;99.90;;;;;;5032341;28;20029;-66
2021/07/25 11:38:54;;;;;;;6.40;5.50;;;20.40;99.90;;;;;;5033489;28;20065;-66
2021/07/25 11:41:28;;;;;;;9.25;6.13;;;20.60;99.90;;;;;;5033554;28;20022;-66
2021/07/25 11:44:06;;;;;;;7.28;5.72;;;20.80;99.90;;;;;;5033794;28;20033;-66
2021/07/25 11:46:33;;;;;;;10.57;5.50;;;20.90;99.90;;;;;;5033138;28;20029;-66
2021/07/25 11:49:17;;;;;;;6.18;5.40;;;20.90;99.90;;;;;;5033472;28;20029;-65
2021/07/25 11:51:50;;;;;;;6.40;5.65;;;21.00;99.90;;;;;;5033581;28;20132;-64
2021/07/25 11:54:23;;;;;;;7.13;5.70;;;21.10;99.90;;;;;;5032739;28;20091;-64
2021/07/25 11:56:56;;;;;;;8.73;5.80;;;21.20;99.90;;;;;;5033545;28;20061;-64
2021/07/25 11:59:22;;;;;;;9.43;6.13;;;21.20;99.90;;;;;;5032548;28;20084;-66
2021/07/25 12:01:48;;;;;;;7.38;5.28;;;21.30;99.90;;;;;;5033387;28;20094;-63
2021/07/25 12:04:17;;;;;;;8.65;6.43;;;21.30;99.90;;;;;;5032928;28;20558;-67
2021/07/25 12:06:43;;;;;;;8.27;5.73;;;21.30;99.90;;;;;;5045994;28;20036;-66
2021/07/25 12:09:09;;;;;;;7.45;6.43;;;21.30;99.90;;;;;;5043416;28;20788;-65
2021/07/25 12:11:37;;;;;;;6.60;5.68;;;21.40;99.90;;;;;;5032456;28;20104;-64
2021/07/25 12:14:03;;;;;;;7.50;6.50;;;21.40;99.90;;;;;;5032912;28;20026;-64
2021/07/25 12:16:46;;;;;;;7.25;6.22;;;21.30;99.90;;;;;;5032317;28;20089;-65
2021/07/25 12:19:17;;;;;;;6.63;5.90;;;21.40;99.90;;;;;;5031884;28;20058;-65
2021/07/25 12:21:43;;;;;;;6.72;5.85;;;21.30;99.90;;;;;;5032944;28;20021;-64
2021/07/25 12:24:45;;;;;;;10.48;6.85;;;21.20;99.90;;;;;;5032954;28;20082;-64
2021/07/25 12:27:29;;;;;;;9.13;6.15;;;21.20;99.90;;;;;;5030276;28;20091;-65
2021/07/25 12:30:20;;;;;;;6.95;5.68;;;21.10;99.90;;;;;;5030789;28;20132;-65
2021/07/25 12:32:46;;;;;;;7.65;6.25;;;20.90;99.90;;;;;;5031975;28;20088;-65
2021/07/25 12:35:17;;;;;;;7.28;5.28;;;20.80;99.90;;;;;;5035350;28;20120;-65
2021/07/25 12:37:47;;;;;;;6.22;5.18;;;20.60;99.90;;;;;;5027809;28;20081;-65
2021/07/25 12:40:20;;;;;;;8.38;6.28;;;20.50;99.90;;;;;;5033286;28;20037;-64
2021/07/25 12:42:48;;;;;;;7.00;5.68;;;20.40;99.90;;;;;;5033104;28;20026;-65
2021/07/25 12:45:32;;;;;;;8.50;6.30;;;20.30;99.90;;;;;;5031855;28;20083;-65
2021/07/25 12:48:23;;;;;;;8.40;6.03;;;20.30;99.90;;;;;;5032186;28;20025;-65